Richard Lloyd Jones Jr Airport
KRVS : rendu visible

Aérodrome :











RETROUVEZ-NOUS SUR...

 
LOGIN :

S'inscrire | Disclaimer

   EN    FR    IT 

 









Légende :    VFR   VFR Marginal   IFR   IFR Intensif   IFR Très Intensif
Visi : 
Plafond : 
>= 8 km
>= 3000ft
5 à 8 km
1000 à 3000 ft
1500m à 5 km
500 à 1000 ft
800 à 1500m
200 à 500 ft
< 800m
< 200 ft
Symboles :   Orages  Brouillard  Fortes neiges  Fortes précipitations  Vent > 20 kt






- Altitude de l'aérodrome : 638 ft


KRVS - Richard Lloyd Jones Jr

DERNIER METAR :
  • 151353Z 20009KT 10SM CLR 29/21 A2997 RMK AO2 SLP150 T02940206

METARs EXPIRÉS :
  • 151253Z 19007KT 10SM CLR 27/21 A2996 RMK AO2 SLP146 T02720211
  • 151153Z 20006KT 10SM CLR 26/22 A2995 RMK AO2 SLP141 T02610217 10294 20261 51007
  • 151053Z AUTO 19005KT 10SM CLR 26/22 A2994 RMK AO2 SLP140 T02610217
  • 150953Z AUTO 18005KT 10SM CLR 27/22 A2993 RMK AO2 SLP137 T02670217

TAF KRVS
Valide du 15 à 12h jusqu'au 16 à 12h UTC


151120Z 1512/1612 18007KT P6SM SKC
FM151600 19012G20KT P6SM FEW250
FM160100 18007KT P6SM SCT120 SCT250
FIR KZKC / Amérique du Nord



MET'MAP, la Météo Aéronautique d'un coup d'oeil ! - Copyright ORBIFLY Décembre 2007 - Disclaimer

ORBIFLY MET'MAP TEAM :

Programmation & Développement : Alexandra Zaïnal
Sur une idée originale de : Baudouin d'Aumeries
Soutien technique & logistique : Manuel Goepfert
Assistance : Marc-Olivier Méhu




SOURCES & CREDITS :

   NOAA       Earth
Advisory